createdAt,value
2022-08-07T00:02:36.787Z,29.65
2022-08-07T00:05:09.139Z,29.57
2022-08-07T00:07:41.630Z,29.68
2022-08-07T00:10:26.909Z,29.67
2022-08-07T00:13:23.609Z,29.70
2022-08-07T00:15:55.410Z,29.62
2022-08-07T00:18:30.188Z,29.75
2022-08-07T00:21:07.905Z,29.47
2022-08-07T00:23:56.596Z,29.78
2022-08-07T00:26:58.941Z,29.79
2022-08-07T00:29:23.396Z,29.78
2022-08-07T00:32:01.276Z,29.81
2022-08-07T00:34:32.983Z,29.81
2022-08-07T00:37:06.954Z,29.79
2022-08-07T00:39:45.205Z,29.84
2022-08-07T00:42:29.172Z,29.82
2022-08-07T00:45:00.873Z,29.84
2022-08-07T00:48:09.821Z,29.77
2022-08-07T00:50:50.242Z,29.72
2022-08-07T00:53:22.576Z,29.82
2022-08-07T00:56:02.846Z,29.83
2022-08-07T00:58:35.417Z,29.58
2022-08-07T01:01:07.523Z,29.82
2022-08-07T01:03:56.055Z,29.83
2022-08-07T01:06:32.731Z,29.83
2022-08-07T01:09:05.488Z,29.84
2022-08-07T01:12:09.180Z,29.78
2022-08-07T01:14:32.788Z,29.85
2022-08-07T01:17:08.656Z,29.79
2022-08-07T01:19:42.048Z,29.80
2022-08-07T01:22:29.326Z,29.81
2022-08-07T01:25:05.186Z,29.77
2022-08-07T01:27:54.847Z,29.81
2022-08-07T01:30:27.757Z,29.50
2022-08-07T01:33:02.328Z,29.78
2022-08-07T01:35:52.916Z,29.81
2022-08-07T01:38:31.661Z,29.81
2022-08-07T01:41:12.651Z,29.82
2022-08-07T01:43:59.495Z,29.82
2022-08-07T01:46:38.040Z,29.79
2022-08-07T01:49:14.252Z,29.82
2022-08-07T01:52:01.729Z,29.81
2022-08-07T01:54:39.291Z,29.80
2022-08-07T01:57:25.586Z,29.40
2022-08-07T02:00:13.031Z,29.12
2022-08-07T02:03:11.902Z,29.82
2022-08-07T02:06:08.834Z,29.38
2022-08-07T02:08:57.519Z,29.44
2022-08-07T02:12:04.089Z,29.81
2022-08-07T02:14:40.571Z,29.80
2022-08-07T02:17:27.767Z,29.74
2022-08-07T02:20:17.201Z,29.53
2022-08-07T02:22:55.106Z,29.45
2022-08-07T02:25:47.225Z,29.82
2022-08-07T02:28:24.724Z,29.81
2022-08-07T02:31:18.979Z,29.82
2022-08-07T02:34:03.612Z,29.47
2022-08-07T02:36:43.286Z,29.87
2022-08-07T02:39:43.362Z,29.86
2022-08-07T02:42:16.856Z,29.84
2022-08-07T02:44:53.153Z,29.53
2022-08-07T02:47:27.972Z,29.88
2022-08-07T02:50:16.353Z,29.88
2022-08-07T02:53:03.478Z,29.89
2022-08-07T02:56:03.309Z,29.83
2022-08-07T02:58:33.776Z,29.83
2022-08-07T03:01:16.040Z,29.92
2022-08-07T03:03:52.055Z,29.93
2022-08-07T03:06:34.613Z,29.95
2022-08-07T03:09:12.320Z,29.86
2022-08-07T03:11:51.645Z,29.96
2022-08-07T03:14:33.974Z,29.95
2022-08-07T03:17:08.771Z,30.00
2022-08-07T03:19:42.419Z,29.99
2022-08-07T03:22:29.711Z,29.77
2022-08-07T03:25:03.794Z,30.04
2022-08-07T03:27:59.235Z,29.62
2022-08-07T03:30:33.945Z,30.11
2022-08-07T03:33:08.583Z,30.07
2022-08-07T03:35:50.196Z,30.16
2022-08-07T03:38:29.740Z,30.16
2022-08-07T03:41:10.382Z,30.11
2022-08-07T03:43:56.870Z,30.22
2022-08-07T03:46:34.878Z,30.22
2022-08-07T03:49:07.392Z,30.25
2022-08-07T03:51:47.057Z,30.28
2022-08-07T03:54:35.896Z,30.32
2022-08-07T03:58:32.706Z,30.34
2022-08-07T04:00:08.910Z,30.37
2022-08-07T04:02:51.940Z,30.38
2022-08-07T04:05:39.322Z,30.40
2022-08-07T04:08:18.621Z,30.03
2022-08-07T04:12:20.882Z,30.34
2022-08-07T04:13:49.628Z,30.46
2022-08-07T04:16:43.093Z,30.48
2022-08-07T04:19:51.023Z,30.50
2022-08-07T04:22:29.511Z,30.17
2022-08-07T04:25:12.114Z,30.49
2022-08-07T04:27:59.108Z,30.55
2022-08-07T04:30:39.587Z,30.44
2022-08-07T04:33:27.847Z,30.14
2022-08-07T04:36:00.763Z,30.60
2022-08-07T04:38:40.099Z,30.58
2022-08-07T04:41:18.071Z,30.48
2022-08-07T04:44:09.811Z,30.30
2022-08-07T04:47:03.947Z,29.71
2022-08-07T04:50:03.809Z,30.14
2022-08-07T04:52:52.212Z,30.02
2022-08-07T04:58:07.680Z,29.56
2022-08-07T04:59:18.407Z,29.96
2022-08-07T05:02:05.035Z,29.39
2022-08-07T05:04:50.340Z,29.79
2022-08-07T05:07:51.707Z,28.93
2022-08-07T05:11:02.326Z,29.68
2022-08-07T05:14:53.338Z,29.65
2022-08-07T05:16:35.045Z,28.77
2022-08-07T05:19:19.267Z,28.77
2022-08-07T05:22:04.563Z,29.12
2022-08-07T05:24:43.043Z,29.36
2022-08-07T05:28:02.574Z,29.05
2022-08-07T05:30:12.474Z,29.38
2022-08-07T05:32:48.446Z,29.35
2022-08-07T05:35:33.038Z,29.39
2022-08-07T05:38:09.649Z,28.86
2022-08-07T05:40:50.378Z,29.37
2022-08-07T05:43:49.797Z,28.99
2022-08-07T05:46:19.090Z,28.87
2022-08-07T05:48:59.163Z,29.03
2022-08-07T05:51:39.971Z,29.32
2022-08-07T05:54:30.251Z,29.30
2022-08-07T05:57:08.152Z,29.31
2022-08-07T05:59:55.968Z,28.93
2022-08-07T06:02:35.165Z,28.85
2022-08-07T06:05:15.753Z,29.20
2022-08-07T06:08:14.391Z,29.29
2022-08-07T06:10:46.241Z,29.26
2022-08-07T06:14:10.548Z,29.25
2022-08-07T06:16:16.916Z,29.13
2022-08-07T06:18:51.945Z,29.26
2022-08-07T06:22:15.473Z,29.20
2022-08-07T06:24:38.342Z,29.24
2022-08-07T06:27:13.035Z,29.22
2022-08-07T06:30:04.740Z,29.24
2022-08-07T06:32:36.551Z,29.26
2022-08-07T06:35:17.964Z,29.25
2022-08-07T06:37:52.836Z,29.18
2022-08-07T06:40:24.584Z,29.28
2022-08-07T06:42:57.448Z,29.26
2022-08-07T06:45:44.305Z,29.25
2022-08-07T06:48:25.303Z,29.22
2022-08-07T06:51:08.163Z,29.24
2022-08-07T06:55:29.815Z,28.84
2022-08-07T06:56:49.500Z,29.11
2022-08-07T07:00:12.994Z,29.45
2022-08-07T07:02:54.371Z,29.40
2022-08-07T07:06:03.199Z,28.72
2022-08-07T07:08:18.801Z,29.50
2022-08-07T07:10:57.866Z,29.44
2022-08-07T07:13:58.278Z,29.06
2022-08-07T07:16:45.121Z,29.50
2022-08-07T07:19:55.612Z,29.43
2022-08-07T07:22:36.300Z,29.57
2022-08-07T07:26:32.120Z,29.49
2022-08-07T07:28:48.303Z,29.56
2022-08-07T07:31:22.821Z,29.61
2022-08-07T07:34:01.402Z,29.56
2022-08-07T07:36:33.923Z,29.62
2022-08-07T07:39:07.625Z,29.29
2022-08-07T07:41:50.797Z,29.50
2022-08-07T07:44:35.194Z,29.19
2022-08-07T07:47:15.706Z,29.04
2022-08-07T07:50:33.944Z,29.62
2022-08-07T07:52:49.019Z,29.61
2022-08-07T07:55:21.231Z,29.37
2022-08-07T07:57:58.358Z,29.72
2022-08-07T08:00:34.144Z,29.73
2022-08-07T08:03:16.669Z,29.36
2022-08-07T08:05:54.074Z,29.71
2022-08-07T08:08:35.471Z,29.73
2022-08-07T08:11:16.255Z,29.70
2022-08-07T08:13:54.729Z,29.60
2022-08-07T08:16:57.301Z,29.63
2022-08-07T08:20:19.429Z,29.88
2022-08-07T08:23:03.227Z,30.08
2022-08-07T08:25:56.526Z,29.88
2022-08-07T08:28:37.637Z,29.95
2022-08-07T08:31:15.970Z,30.50
2022-08-07T08:33:55.908Z,30.62
2022-08-07T08:36:34.555Z,30.24
2022-08-07T08:39:07.773Z,30.66
2022-08-07T08:42:05.825Z,30.89
2022-08-07T08:44:53.346Z,31.13
2022-08-07T08:47:34.453Z,31.31
2022-08-07T08:50:38.845Z,31.02
2022-08-07T08:53:21.243Z,31.54
2022-08-07T08:56:08.791Z,31.07
2022-08-07T08:59:17.461Z,31.53
2022-08-07T09:02:10.523Z,31.37
2022-08-07T09:05:14.797Z,31.89
2022-08-07T09:07:59.551Z,31.88
2022-08-07T09:10:46.300Z,31.88
2022-08-07T09:13:37.132Z,32.04
2022-08-07T09:16:21.901Z,31.64
2022-08-07T09:18:58.759Z,32.12
2022-08-07T09:24:28.321Z,32.10
2022-08-07T09:25:27.954Z,32.09
2022-08-07T09:28:02.974Z,32.22
2022-08-07T09:31:03.139Z,32.13
2022-08-07T09:33:57.287Z,32.27
2022-08-07T09:37:01.929Z,31.78
2022-08-07T09:39:53.988Z,32.30
2022-08-07T09:42:50.326Z,32.30
2022-08-07T09:47:25.882Z,32.25
2022-08-07T09:50:01.909Z,32.37
2022-08-07T09:52:33.738Z,32.05
2022-08-07T09:55:17.034Z,32.36
2022-08-07T09:58:32.214Z,31.93
2022-08-07T10:01:50.637Z,32.35
2022-08-07T10:04:58.474Z,32.30
2022-08-07T10:07:53.576Z,32.39
2022-08-07T10:11:16.522Z,32.19
2022-08-07T10:14:11.274Z,32.12
2022-08-07T10:17:03.717Z,32.26
2022-08-07T10:19:57.028Z,32.41
2022-08-07T10:22:33.767Z,32.40
2022-08-07T10:25:42.536Z,32.33
2022-08-07T10:28:49.376Z,32.37
2022-08-07T10:32:36.396Z,31.89
2022-08-07T10:35:55.461Z,32.30
2022-08-07T10:38:48.868Z,32.33
2022-08-07T10:41:54.666Z,32.07
2022-08-07T10:44:55.777Z,32.35
2022-08-07T10:47:53.241Z,32.40
2022-08-07T10:50:52.118Z,32.06
2022-08-07T10:54:00.032Z,31.87
2022-08-07T10:56:49.814Z,32.39
2022-08-07T10:59:30.418Z,32.38
2022-08-07T11:02:38.118Z,32.26
2022-08-07T11:05:35.684Z,32.09
2022-08-07T11:08:53.436Z,31.90
2022-08-07T11:11:59.334Z,31.76
2022-08-07T11:14:57.329Z,30.98
2022-08-07T11:17:48.562Z,31.72
2022-08-07T11:20:22.594Z,31.86
2022-08-07T11:23:07.214Z,31.50
2022-08-07T11:26:07.919Z,31.95
2022-08-07T11:28:55.675Z,31.96
2022-08-07T11:32:11.825Z,32.05
2022-08-07T11:34:58.183Z,32.09
2022-08-07T11:38:12.933Z,32.21
2022-08-07T11:40:54.143Z,32.22
2022-08-07T11:43:55.022Z,32.11
2022-08-07T11:46:57.517Z,32.21
2022-08-07T11:50:31.228Z,31.77
2022-08-07T11:53:22.053Z,32.21
2022-08-07T11:56:26.918Z,32.28
2022-08-07T12:00:08.034Z,32.29
2022-08-07T12:02:33.431Z,32.23
2022-08-07T12:05:47.503Z,31.74
2022-08-07T12:08:36.903Z,31.70
2022-08-07T12:11:21.280Z,31.96
2022-08-07T12:14:13.220Z,31.80
2022-08-07T12:17:19.882Z,31.64
2022-08-07T12:20:29.746Z,31.70
2022-08-07T12:24:05.479Z,31.51
2022-08-07T12:27:14.971Z,31.61
2022-08-07T12:30:04.459Z,31.43
2022-08-07T12:32:54.289Z,31.52
2022-08-07T12:35:29.283Z,31.57
2022-08-07T12:38:16.117Z,31.53
2022-08-07T12:41:04.858Z,31.12
2022-08-07T12:44:02.572Z,31.53
2022-08-07T12:46:57.460Z,31.47
2022-08-07T12:50:39.649Z,31.44
2022-08-07T12:53:18.106Z,31.34
2022-08-07T12:56:09.282Z,31.10
2022-08-07T12:58:46.778Z,31.54
2022-08-07T13:02:00.031Z,31.51
2022-08-07T13:05:01.217Z,31.49
2022-08-07T13:08:13.771Z,31.51
2022-08-07T13:11:21.567Z,31.39
2022-08-07T13:14:20.744Z,31.40
2022-08-07T13:17:06.483Z,31.43
2022-08-07T13:19:50.538Z,31.50
2022-08-07T13:22:34.091Z,31.50
2022-08-07T13:25:15.171Z,31.44
2022-08-07T13:28:10.646Z,31.38
2022-08-07T13:30:53.184Z,31.41
2022-08-07T13:34:30.293Z,31.24
2022-08-07T13:36:56.469Z,30.83
2022-08-07T13:40:34.346Z,30.97
2022-08-07T13:42:30.206Z,30.84
2022-08-07T13:46:06.684Z,30.37
2022-08-07T13:48:05.282Z,30.60
2022-08-07T13:50:45.295Z,30.44
2022-08-07T13:54:00.874Z,30.33
2022-08-07T13:56:41.234Z,29.95
2022-08-07T13:59:31.832Z,29.91
2022-08-07T14:02:13.878Z,30.24
2022-08-07T14:04:51.612Z,30.18
2022-08-07T14:07:33.675Z,29.99
2022-08-07T14:10:20.503Z,30.09
2022-08-07T14:13:01.756Z,29.28
2022-08-07T14:15:50.471Z,29.90
2022-08-07T14:18:57.149Z,29.50
2022-08-07T14:22:04.283Z,29.83
2022-08-07T14:24:47.540Z,29.84
2022-08-07T14:28:11.659Z,29.36
2022-08-07T14:30:32.411Z,29.77
2022-08-07T14:33:06.848Z,29.73
2022-08-07T14:35:45.541Z,29.66
2022-08-07T14:38:34.663Z,29.32
2022-08-07T14:41:15.062Z,28.93
2022-08-07T14:43:58.700Z,29.55
2022-08-07T14:46:56.473Z,29.12
2022-08-07T14:49:58.416Z,29.50
2022-08-07T14:52:29.216Z,29.54
2022-08-07T14:55:02.967Z,29.54
2022-08-07T14:57:58.069Z,29.51
2022-08-07T15:00:37.133Z,29.42
2022-08-07T15:03:16.618Z,29.43
2022-08-07T15:05:55.242Z,29.37
2022-08-07T15:08:54.565Z,29.37
2022-08-07T15:14:30.549Z,29.33
2022-08-07T15:17:23.491Z,29.20
2022-08-07T15:20:31.501Z,29.07
2022-08-07T15:22:57.311Z,29.26
2022-08-07T15:25:36.963Z,28.88
2022-08-07T15:28:34.585Z,29.12
2022-08-07T15:31:06.796Z,28.84
2022-08-07T15:33:42.781Z,28.82
2022-08-07T15:37:02.738Z,29.22
2022-08-07T15:39:10.676Z,28.78
2022-08-07T15:44:57.878Z,29.14
2022-08-07T15:47:42.797Z,29.12
2022-08-07T15:53:51.761Z,28.39
2022-08-07T15:56:37.638Z,28.87
2022-08-07T15:59:18.529Z,29.02
2022-08-07T16:02:01.669Z,29.48
2022-08-07T16:04:36.945Z,28.75
2022-08-07T16:08:33.393Z,29.12
2022-08-07T16:10:19.458Z,29.45
2022-08-07T16:13:57.469Z,29.47
2022-08-07T16:16:48.037Z,29.01
2022-08-07T16:19:58.774Z,29.03
2022-08-07T16:23:05.253Z,29.46
2022-08-07T16:26:02.697Z,29.40
2022-08-07T16:30:05.973Z,29.34
2022-08-07T16:32:35.351Z,28.58
2022-08-07T16:35:56.925Z,29.38
2022-08-07T16:39:01.549Z,29.15
2022-08-07T16:42:26.267Z,29.03
2022-08-07T16:45:15.190Z,29.16
2022-08-07T16:48:27.723Z,29.18
2022-08-07T16:52:01.704Z,29.09
2022-08-07T16:54:33.016Z,29.17
2022-08-07T16:57:28.818Z,29.19
2022-08-07T17:00:29.772Z,29.17
2022-08-07T17:03:19.201Z,29.10
2022-08-07T17:06:44.861Z,29.06
2022-08-07T17:10:06.724Z,28.76
2022-08-07T17:12:46.219Z,28.98
2022-08-07T17:15:21.271Z,29.06
2022-08-07T17:18:14.392Z,28.60
2022-08-07T17:20:47.515Z,29.06
2022-08-07T17:23:32.583Z,29.04
2022-08-07T17:26:22.648Z,29.01
2022-08-07T17:29:04.576Z,28.96
2022-08-07T17:32:03.371Z,28.89
2022-08-07T17:35:40.603Z,28.91
2022-08-07T17:38:32.035Z,28.79
2022-08-07T17:42:01.962Z,28.87
2022-08-07T17:44:50.198Z,28.77
2022-08-07T17:47:42.856Z,28.39
2022-08-07T17:50:30.161Z,28.87
2022-08-07T17:54:01.120Z,28.36
2022-08-07T17:56:49.845Z,28.75
2022-08-07T17:59:35.993Z,28.66
2022-08-07T18:02:27.200Z,28.35
2022-08-07T18:05:21.356Z,28.26
2022-08-07T18:08:15.511Z,28.71
2022-08-07T18:12:07.107Z,28.72
2022-08-07T18:13:51.906Z,28.40
2022-08-07T18:16:57.995Z,28.55
2022-08-07T18:21:11.697Z,28.55
2022-08-07T18:22:57.388Z,28.70
2022-08-07T18:25:39.400Z,28.64
2022-08-07T18:28:58.327Z,28.13
2022-08-07T18:31:51.158Z,28.47
2022-08-07T18:35:01.926Z,28.50
2022-08-07T18:38:56.012Z,28.47
2022-08-07T18:41:44.729Z,28.48
2022-08-07T18:45:44.736Z,28.39
2022-08-07T18:48:07.454Z,28.41
2022-08-07T18:51:14.936Z,28.22
2022-08-07T18:54:30.468Z,28.46
2022-08-07T18:57:36.813Z,27.96
2022-08-07T19:00:33.546Z,28.48
2022-08-07T19:03:17.884Z,28.38
2022-08-07T19:06:05.487Z,28.25
2022-08-07T19:09:00.257Z,28.37
2022-08-07T19:12:05.469Z,28.45
2022-08-07T19:15:00.804Z,28.36
2022-08-07T19:18:11.287Z,28.31
2022-08-07T19:21:44.973Z,28.38
2022-08-07T19:24:11.987Z,28.31
2022-08-07T19:28:30.496Z,28.01
2022-08-07T19:30:57.666Z,28.34
2022-08-07T19:33:00.257Z,28.38
2022-08-07T19:35:35.087Z,28.39
2022-08-07T19:38:16.957Z,28.03
2022-08-07T19:40:51.691Z,28.13
2022-08-07T19:43:50.052Z,27.97
2022-08-07T19:46:29.169Z,28.25
2022-08-07T19:49:57.521Z,28.17
2022-08-07T19:52:18.405Z,28.27
2022-08-07T19:54:56.376Z,27.85
2022-08-07T19:58:01.398Z,28.25
2022-08-07T20:00:36.281Z,28.33
2022-08-07T20:03:33.492Z,27.84
2022-08-07T20:06:15.612Z,28.13
2022-08-07T20:09:03.471Z,27.85
2022-08-07T20:12:22.879Z,28.29
2022-08-07T20:14:54.033Z,27.91
2022-08-07T20:17:38.644Z,27.94
2022-08-07T20:20:12.040Z,28.20
2022-08-07T20:22:48.734Z,28.26
2022-08-07T20:25:21.224Z,28.20
2022-08-07T20:27:58.545Z,28.09
2022-08-07T20:30:37.815Z,28.18
2022-08-07T20:33:36.545Z,27.71
2022-08-07T20:36:08.947Z,27.72
2022-08-07T20:38:53.793Z,28.23
2022-08-07T20:41:38.346Z,28.18
2022-08-07T20:44:13.433Z,28.19
2022-08-07T20:46:48.311Z,27.76
2022-08-07T20:49:59.820Z,27.87
2022-08-07T20:52:51.196Z,28.04
2022-08-07T20:55:25.922Z,27.90
2022-08-07T20:58:11.915Z,28.10
2022-08-07T21:00:58.033Z,28.16
2022-08-07T21:03:31.999Z,28.15
2022-08-07T21:06:21.678Z,28.14
2022-08-07T21:09:13.703Z,28.12
2022-08-07T21:11:51.151Z,28.12
2022-08-07T21:14:34.802Z,27.78
2022-08-07T21:18:03.444Z,27.99
2022-08-07T21:20:09.963Z,27.72
2022-08-07T21:22:51.301Z,28.07
2022-08-07T21:25:44.655Z,27.81
2022-08-07T21:28:48.654Z,27.67
2022-08-07T21:32:10.929Z,27.99
2022-08-07T21:35:08.063Z,27.83
2022-08-07T21:38:03.948Z,28.02
2022-08-07T21:41:01.529Z,27.43
2022-08-07T21:43:59.092Z,27.92
2022-08-07T21:46:51.742Z,28.02
2022-08-07T21:50:02.164Z,27.92
2022-08-07T21:52:44.176Z,28.02
2022-08-07T21:55:29.940Z,27.92
2022-08-07T21:58:22.169Z,28.01
2022-08-07T22:01:13.930Z,27.99
2022-08-07T22:03:58.861Z,27.57
2022-08-07T22:06:44.974Z,27.96
2022-08-07T22:09:26.964Z,27.59
2022-08-07T22:12:11.280Z,27.92
2022-08-07T22:16:42.712Z,27.82
2022-08-07T22:18:35.820Z,27.33
2022-08-07T22:21:24.021Z,27.75
2022-08-07T22:24:22.151Z,27.84
2022-08-07T22:27:16.013Z,27.84
2022-08-07T22:29:54.185Z,27.73
2022-08-07T22:32:42.481Z,27.72
2022-08-07T22:35:15.835Z,27.63
2022-08-07T22:38:03.455Z,27.78
2022-08-07T22:40:46.961Z,27.82
2022-08-07T22:43:31.478Z,27.80
2022-08-07T22:47:02.190Z,27.51
2022-08-07T22:49:55.066Z,27.68
2022-08-07T22:53:07.807Z,27.67
2022-08-07T22:56:05.153Z,27.70
2022-08-07T22:59:04.950Z,27.77
2022-08-07T23:02:06.351Z,27.15
2022-08-07T23:06:07.066Z,27.09
2022-08-07T23:08:30.665Z,27.66
2022-08-07T23:11:41.304Z,27.70
2022-08-07T23:14:50.060Z,27.37
2022-08-07T23:17:41.583Z,27.24
2022-08-07T23:20:51.472Z,28.02
2022-08-07T23:24:06.251Z,28.02
2022-08-07T23:27:03.778Z,28.13
2022-08-07T23:30:35.419Z,28.27
2022-08-07T23:34:20.708Z,28.38
2022-08-07T23:35:45.602Z,28.45
2022-08-07T23:38:42.246Z,28.54
2022-08-07T23:42:01.677Z,28.67
2022-08-07T23:45:15.294Z,28.70
2022-08-07T23:48:05.263Z,28.33
2022-08-07T23:53:00.536Z,28.76
2022-08-07T23:54:36.040Z,28.93
2022-08-07T23:57:30.378Z,29.02
